Etusivu
METAR-TAF:

METAR-TAF

Lentoasemat :

Ljungbyhed, Ruotsi

Leveyspiiri: 56-04N, Pituuspiiri: 013-12E, korkeus merenpinnasta: 43 m

Tämänhetkinen sää

Tämä raportti tehtiin 34 minuuttia sitten, kello 16.50 UTC
tyyntä
Lämpötila -1°C
Kosteus 100%
Ilmanpaine 1023 hPa
Näkyvyys: 0250 m
jäätävää sumua

METAR: ESTL 271650Z AUTO 00000KT 0250 R29L/0750N FZFG VV000 M01/M01 Q1023

Aika: 18:24 (17:24 UTC)

Sääennuste

Tämä raportti tehtiin 6 tuntia ja 8 minuuttia sitten, kello 11.16 UTC
Ennuste voimassa 27. päivästä klo 12 UTC - 27. päivään klo 16 UTC
Tuuli 2 kn eri suunnista
Näkyvyys: 0100 m
alle 100 ft:n korkeudessa
jäätävää sumua
Todennäköisyys 40%
27. päivästä klo 12 UTC - 27. päivään klo 16 UTC
Näkyvyys: 2000 m
Hajonneita pilviä 300 ft:n korkeudessa
utua

TAF: ESTL 271116Z 2712/2716 VRB02KT 0100 FZFG VV000 PROB40 2712/2716 2000 BR BKN003

Säähavainnot ja -ennusteet yli 4000 lentoasemalta (METAR- ja TAF-raportit).

Käytössä olevat sääasemat on merkitty karttaan keltaisilla ja punaisilla pisteillä.

Aseta hiiri pisteen päälle nähdäksesi sääaseman nimen.

Klikkaa sitten nähdäksesi säähavainnot ja -ennusteet.

Kartan vaihtaminen: klikkaa mustalla rastilla varustettuja vihreitä pisteitä, niin voit zoomata sisään; viivalla varustettua vihreää pistettä, niin voit zoomata ulos tai vihreitä nuolia, niin pääset viereisille kartoille.


METAR-TAF: